Time;durP1;ratioP1;P1;durP2;ratioP2;P2;SDS_P1;SDS_P2;PMS_P1;PMS_P2;Temp;Humidity;BMP_temperature;BMP_pressure;BME280_temperature;BME280_humidity;BME280_pressure;Samples;Min_cycle;Max_cycle;Signal;HPM_P1;HPM_P2
2021/10/15 00:00:11;;;;;;;9.87;3.87;;;;;;;10.62;85.04;101178.28;684249;28;2395;-58
2021/10/15 00:00:34;;;;;;;11.15;4.20;;;;;;;10.55;85.19;101177.44;680939;28;1994;-58
2021/10/15 00:00:55;;;;;;;9.07;4.10;;;;;;;10.49;86.19;101175.63;680684;28;4460;-59
2021/10/15 00:01:15;;;;;;;7.68;3.92;;;;;;;10.43;86.93;101173.00;684431;28;1358;-59
2021/10/15 00:01:36;;;;;;;9.23;3.87;;;;;;;10.34;88.18;101175.53;681686;28;1449;-60
2021/10/15 00:01:56;;;;;;;9.63;3.80;;;;;;;10.22;87.07;101177.25;678135;29;1316;-60
2021/10/15 00:02:16;;;;;;;8.30;3.67;;;;;;;10.19;87.24;101173.72;679051;28;1512;-60
2021/10/15 00:02:37;;;;;;;8.03;3.87;;;;;;;10.15;87.29;101174.56;678862;28;1248;-58
2021/10/15 00:03:00;;;;;;;8.97;4.13;;;;;;;10.15;88.28;101177.19;678911;28;3055;-59
2021/10/15 00:03:20;;;;;;;9.00;4.10;;;;;;;10.09;87.11;101171.94;679092;28;3567;-60
2021/10/15 00:03:41;;;;;;;8.33;4.10;;;;;;;10.06;88.67;101172.78;682407;28;1239;-60
2021/10/15 00:04:01;;;;;;;7.83;4.00;;;;;;;10.04;88.41;101175.41;682108;28;4470;-59
2021/10/15 00:04:21;;;;;;;8.65;4.13;;;;;;;10.01;87.61;101174.50;684778;28;1277;-58
2021/10/15 00:04:42;;;;;;;8.77;3.83;;;;;;;10.01;87.70;101174.50;682621;28;1093;-60
2021/10/15 00:05:02;;;;;;;8.05;3.70;;;;;;;10.00;87.34;101170.16;683403;28;1152;-57
2021/10/15 00:05:23;;;;;;;7.53;3.90;;;;;;;10.00;88.89;101173.63;682090;28;1418;-58
2021/10/15 00:05:43;;;;;;;8.82;4.00;;;;;;;9.99;88.67;101173.63;681140;28;1138;-61
2021/10/15 00:06:03;;;;;;;8.70;3.80;;;;;;;9.98;89.10;101171.88;681099;28;3330;-59
2021/10/15 00:06:24;;;;;;;8.67;4.00;;;;;;;9.97;89.90;101167.50;680806;28;2270;-58
2021/10/15 00:06:44;;;;;;;8.15;3.50;;;;;;;9.93;88.33;101170.97;683917;28;1306;-58
2021/10/15 00:07:05;;;;;;;8.43;3.50;;;;;;;9.90;88.14;101169.25;680073;28;4712;-59
2021/10/15 00:07:25;;;;;;;7.55;3.63;;;;;;;9.90;88.87;101171.84;682853;28;1336;-60
2021/10/15 00:07:45;;;;;;;8.27;3.90;;;;;;;9.89;90.28;101170.97;683435;28;1103;-59
2021/10/15 00:08:06;;;;;;;8.30;4.20;;;;;;;9.91;90.13;101175.31;684291;28;1216;-59
2021/10/15 00:08:26;;;;;;;8.32;4.30;;;;;;;9.87;91.04;101169.19;680662;28;1138;-58
2021/10/15 00:08:46;;;;;;;9.53;4.23;;;;;;;9.82;90.14;101169.19;680381;28;1292;-57
2021/10/15 00:09:07;;;;;;;9.48;3.92;;;;;;;9.84;90.17;101171.78;681287;28;3510;-59
2021/10/15 00:09:27;;;;;;;9.93;4.87;;;;;;;9.84;91.42;101171.78;684051;28;3419;-60
2021/10/15 00:09:48;;;;;;;11.15;5.13;;;;;;;9.79;89.92;101173.50;683085;28;1229;-62
2021/10/15 00:10:09;;;;;;;8.90;4.43;;;;;;;9.77;89.47;101176.09;680985;28;4286;-59
2021/10/15 00:10:29;;;;;;;7.00;3.85;;;;;;;9.75;88.65;101169.13;684134;28;1254;-57
2021/10/15 00:10:49;;;;;;;8.35;3.80;;;;;;;9.72;89.18;101172.59;683715;28;1089;-57
2021/10/15 00:11:10;;;;;;;8.93;3.90;;;;;;;9.73;89.38;101174.31;683974;28;1148;-59
2021/10/15 00:11:30;;;;;;;10.60;4.87;;;;;;;9.74;91.14;101170.00;684564;28;1334;-57
2021/10/15 00:11:51;;;;;;;10.63;5.03;;;;;;;9.70;91.48;101175.19;680225;28;1224;-58
2021/10/15 00:12:12;;;;;;;10.37;4.53;;;;;;;9.67;90.36;101171.69;683063;28;3469;-56
2021/10/15 00:12:33;;;;;;;10.35;4.40;;;;;;;9.63;90.53;101167.31;682610;28;3984;-58
2021/10/15 00:12:54;;;;;;;8.00;4.00;;;;;;;9.62;90.26;101173.38;682610;28;4457;-60
2021/10/15 00:13:14;;;;;;;7.47;3.80;;;;;;;9.62;90.39;101173.38;683460;28;2071;-59
2021/10/15 00:13:35;;;;;;;8.17;4.23;;;;;;;9.63;91.36;101167.31;684303;28;1205;-59
2021/10/15 00:13:55;;;;;;;9.60;4.47;;;;;;;9.63;91.04;101172.53;686766;28;1343;-59
2021/10/15 00:14:16;;;;;;;9.73;4.33;;;;;;;9.61;90.56;101169.03;686313;28;1278;-58
2021/10/15 00:14:36;;;;;;;7.38;4.10;;;;;;;9.62;90.71;101173.38;686611;28;1247;-60
2021/10/15 00:14:57;;;;;;;9.23;4.57;;;;;;;9.63;92.33;101175.16;686527;28;1338;-59
2021/10/15 00:15:17;;;;;;;10.77;4.83;;;;;;;9.60;92.73;101178.59;685627;28;3516;-59
2021/10/15 00:15:38;;;;;;;11.85;4.97;;;;;;;9.57;91.94;101177.69;685796;28;2183;-59
2021/10/15 00:15:59;;;;;;;10.68;4.70;;;;;;;9.56;91.61;101174.22;685795;28;4338;-56
2021/10/15 00:16:19;;;;;;;10.13;4.70;;;;;;;9.54;90.25;101173.34;682841;28;1337;-58
2021/10/15 00:16:40;;;;;;;8.45;4.00;;;;;;;9.53;90.16;101182.03;683033;28;1419;-56
2021/10/15 00:17:00;;;;;;;10.02;4.22;;;;;;;9.53;90.72;101177.69;683971;28;3309;-58
2021/10/15 00:17:23;;;;;;;11.10;5.03;;;;;;;9.54;92.22;101168.13;683761;28;1305;-58
2021/10/15 00:17:44;;;;;;;14.63;5.93;;;;;;;9.50;91.30;101177.66;682715;28;1327;-58
2021/10/15 00:18:04;;;;;;;11.17;5.00;;;;;;;9.50;90.55;101171.56;681921;28;1208;-59
2021/10/15 00:18:24;;;;;;;11.05;5.03;;;;;;;9.52;91.96;101172.44;681364;28;3098;-57
2021/10/15 00:18:45;;;;;;;12.17;5.53;;;;;;;9.50;91.27;101177.66;681333;28;1917;-59
2021/10/15 00:19:06;;;;;;;10.90;5.30;;;;;;;9.49;91.66;101168.06;681552;28;4329;-57
2021/10/15 00:19:26;;;;;;;8.68;4.25;;;;;;;9.51;91.93;101174.19;681068;28;1225;-58
2021/10/15 00:19:46;;;;;;;9.33;4.60;;;;;;;9.52;92.71;101169.84;681480;28;1303;-58
2021/10/15 00:20:07;;;;;;;9.53;4.37;;;;;;;9.49;91.90;101172.44;681914;28;1379;-58
2021/10/15 00:20:28;;;;;;;10.50;4.50;;;;;;;9.46;91.83;101173.28;683610;28;1351;-58
2021/10/15 00:20:48;;;;;;;9.60;4.43;;;;;;;9.45;89.92;101166.28;683517;28;1954;-59
2021/10/15 00:21:09;;;;;;;7.63;4.18;;;;;;;9.46;90.58;101168.06;682726;28;1069;-59
2021/10/15 00:21:29;;;;;;;8.20;4.27;;;;;;;9.49;91.75;101170.69;683439;28;3623;-59
2021/10/15 00:21:50;;;;;;;9.18;4.57;;;;;;;9.47;92.87;101175.03;680469;28;4650;-58
2021/10/15 00:22:11;;;;;;;9.13;4.57;;;;;;;9.43;91.83;101168.03;681082;28;1395;-59
2021/10/15 00:22:32;;;;;;;8.90;4.38;;;;;;;9.41;91.07;101171.50;681744;28;1132;-59
2021/10/15 00:22:53;;;;;;;8.98;4.22;;;;;;;9.38;89.82;101172.34;678727;29;1046;-59
2021/10/15 00:23:13;;;;;;;7.77;3.90;;;;;;;9.36;89.89;101159.28;678794;29;1220;-59
2021/10/15 00:23:34;;;;;;;7.95;3.90;;;;;;;9.38;91.02;101165.38;679439;28;1114;-61
2021/10/15 00:23:54;;;;;;;9.00;4.40;;;;;;;9.42;92.20;101168.88;680582;28;1200;-59
2021/10/15 00:24:15;;;;;;;12.02;4.90;;;;;;;9.42;92.41;101170.63;681572;28;1436;-58
2021/10/15 00:24:35;;;;;;;11.90;4.67;;;;;;;9.40;92.35;101164.50;681026;28;3171;-59
2021/10/15 00:24:55;;;;;;;10.07;4.40;;;;;;;9.38;93.00;101165.38;680688;28;4553;-58
2021/10/15 00:25:16;;;;;;;10.67;4.50;;;;;;;9.37;92.83;101166.25;681486;28;1177;-58
2021/10/15 00:25:36;;;;;;;8.13;4.00;;;;;;;9.38;92.71;101167.13;680321;28;1422;-58
2021/10/15 00:25:57;;;;;;;8.00;3.90;;;;;;;9.37;92.56;101165.34;681983;28;1180;-58
2021/10/15 00:26:17;;;;;;;9.30;4.00;;;;;;;9.40;93.00;101164.50;684836;28;1255;-60
2021/10/15 00:26:37;;;;;;;10.33;4.53;;;;;;;9.43;93.03;101164.53;683537;28;1346;-58
2021/10/15 00:26:58;;;;;;;9.27;4.80;;;;;;;9.37;91.02;101155.81;682875;28;1277;-60
2021/10/15 00:27:18;;;;;;;9.27;4.60;;;;;;;9.34;91.16;101165.34;682669;28;1211;-58
2021/10/15 00:27:38;;;;;;;8.90;4.33;;;;;;;9.33;91.12;101158.38;683166;28;1452;-58
2021/10/15 00:27:59;;;;;;;9.27;3.88;;;;;;;9.31;91.26;101157.50;682576;28;4349;-59
2021/10/15 00:28:19;;;;;;;8.37;4.13;;;;;;;9.29;91.08;101161.81;684221;28;1529;-58
2021/10/15 00:28:39;;;;;;;9.48;4.18;;;;;;;9.27;91.49;101164.41;682775;28;1296;-58
2021/10/15 00:29:00;;;;;;;8.33;4.10;;;;;;;9.29;91.58;101164.41;685248;28;1168;-60
2021/10/15 00:29:20;;;;;;;8.47;4.23;;;;;;;9.30;93.22;101169.66;686950;28;1255;-58
2021/10/15 00:29:41;;;;;;;8.35;4.50;;;;;;;9.27;92.61;101163.53;685660;28;1315;-59
2021/10/15 00:30:02;;;;;;;9.10;4.00;;;;;;;9.24;91.25;101161.78;685260;28;1219;-56
2021/10/15 00:30:22;;;;;;;9.63;3.95;;;;;;;9.26;92.00;101161.78;684014;28;1207;-58
2021/10/15 00:30:43;;;;;;;8.90;4.20;;;;;;;9.28;92.92;101160.94;683271;28;1609;-60
2021/10/15 00:31:04;;;;;;;8.73;4.50;;;;;;;9.25;93.14;101162.66;682811;28;4685;-59
2021/10/15 00:31:24;;;;;;;9.43;4.32;;;;;;;9.23;92.50;101161.78;681096;28;1281;-59
2021/10/15 00:31:45;;;;;;;9.13;4.10;;;;;;;9.23;92.16;101156.56;680819;28;1467;-60
2021/10/15 00:32:06;;;;;;;8.57;3.90;;;;;;;9.25;91.21;101162.66;682588;28;1196;-55
2021/10/15 00:32:27;;;;;;;9.10;3.80;;;;;;;9.26;92.01;101161.78;683647;28;1135;-59
2021/10/15 00:32:47;;;;;;;9.18;4.32;;;;;;;9.27;92.22;101163.53;684031;28;1406;-56
2021/10/15 00:33:07;;;;;;;10.23;4.43;;;;;;;9.28;92.18;101160.94;683291;28;1211;-59
2021/10/15 00:33:28;;;;;;;7.03;4.18;;;;;;;9.27;92.17;101158.34;686051;28;1033;-57
2021/10/15 00:33:48;;;;;;;6.57;3.90;;;;;;;9.28;92.16;101160.09;686245;28;4357;-59
2021/10/15 00:34:09;;;;;;;8.02;3.85;;;;;;;9.29;92.55;101152.28;683330;28;1991;-59
2021/10/15 00:34:29;;;;;;;9.10;4.00;;;;;;;9.31;92.46;101162.72;684496;28;1532;-59
2021/10/15 00:34:49;;;;;;;8.52;3.78;;;;;;;9.32;91.88;101151.44;682473;28;1457;-60
2021/10/15 00:35:10;;;;;;;9.13;4.27;;;;;;;9.33;91.29;101155.75;683883;28;1128;-56
2021/10/15 00:35:30;;;;;;;8.18;4.07;;;;;;;9.37;92.09;101153.22;684777;28;1145;-58
2021/10/15 00:35:51;;;;;;;7.50;3.77;;;;;;;9.38;92.66;101156.69;683968;28;1117;-59
2021/10/15 00:36:11;;;;;;;8.37;3.90;;;;;;;9.38;93.46;101152.31;685124;28;1191;-58
2021/10/15 00:36:31;;;;;;;9.45;4.50;;;;;;;9.39;91.63;101153.22;685744;28;1110;-58
2021/10/15 00:36:52;;;;;;;13.93;6.03;;;;;;;9.34;90.16;101145.34;683395;28;4593;-59
2021/10/15 00:37:12;;;;;;;13.75;5.82;;;;;;;9.31;90.10;101144.44;682440;28;2078;-58
2021/10/15 00:37:33;;;;;;;9.77;4.57;;;;;;;9.30;90.02;101142.69;678751;28;2112;-59
2021/10/15 00:37:53;;;;;;;9.05;4.40;;;;;;;9.31;91.10;101147.06;679203;28;1241;-58
2021/10/15 00:38:13;;;;;;;13.97;6.30;;;;;;;9.30;92.53;101143.56;678171;28;1378;-59
2021/10/15 00:38:34;;;;;;;13.32;6.68;;;;;;;9.29;92.39;101153.97;681643;28;1134;-60
2021/10/15 00:38:54;;;;;;;14.80;6.90;;;;;;;9.31;92.83;101153.13;682082;28;1125;-59
2021/10/15 00:39:17;;;;;;;19.30;7.78;;;;;;;9.31;94.11;101149.66;683316;28;3496;-60
2021/10/15 00:39:38;;;;;;;14.88;6.88;;;;;;;9.28;93.28;101145.28;683167;28;1105;-56
2021/10/15 00:39:58;;;;;;;13.57;6.57;;;;;;;9.24;92.27;101153.09;684421;28;4447;-60
2021/10/15 00:40:19;;;;;;;12.97;6.20;;;;;;;9.22;91.39;101149.59;684170;28;1793;-58
2021/10/15 00:40:39;;;;;;;11.85;5.25;;;;;;;9.22;91.43;101154.81;682906;28;4076;-60
2021/10/15 00:41:00;;;;;;;12.27;5.57;;;;;;;9.19;91.85;101145.22;683645;28;1279;-56
2021/10/15 00:41:20;;;;;;;14.40;5.80;;;;;;;9.14;91.02;101153.00;684419;28;1367;-58
2021/10/15 00:41:40;;;;;;;13.43;5.50;;;;;;;9.14;91.83;101152.16;683514;28;1097;-59
2021/10/15 00:42:01;;;;;;;12.00;5.33;;;;;;;9.12;91.16;101149.50;684072;28;1106;-58
2021/10/15 00:42:21;;;;;;;10.68;5.03;;;;;;;9.11;90.65;101147.78;682745;28;1156;-58
2021/10/15 00:42:42;;;;;;;9.77;4.60;;;;;;;9.15;91.80;101149.53;683943;28;1302;-60
2021/10/15 00:43:02;;;;;;;9.77;4.67;;;;;;;9.14;92.62;101153.00;683457;28;4653;-58
2021/10/15 00:43:24;;;;;;;10.83;4.57;;;;;;;9.08;90.78;101142.50;682158;28;1946;-58
2021/10/15 00:44:08;;;;;;;9.60;4.20;;;;;;;9.08;90.84;101146.84;681050;28;3890;-58
2021/10/15 00:44:29;;;;;;;10.10;4.68;;;;;;;9.09;92.96;101149.47;683332;28;1462;-60
2021/10/15 00:44:49;;;;;;;11.65;4.50;;;;;;;9.06;92.39;101148.59;684510;28;1350;-60
2021/10/15 00:45:09;;;;;;;10.27;4.63;;;;;;;9.06;92.94;101144.22;684894;28;1132;-59
2021/10/15 00:45:30;;;;;;;8.88;4.55;;;;;;;9.05;93.19;101147.69;685137;28;1096;-58
2021/10/15 00:45:51;;;;;;;7.07;3.93;;;;;;;9.04;91.91;101143.34;683921;28;4363;-60
2021/10/15 00:46:12;;;;;;;8.85;3.88;;;;;;;9.03;91.64;101144.22;682118;28;1243;-59
2021/10/15 00:46:34;;;;;;;9.33;4.00;;;;;;;9.04;93.05;101145.94;681408;28;3597;-57
2021/10/15 00:46:54;;;;;;;8.15;4.20;;;;;;;9.08;93.66;101142.50;682039;28;1203;-57
2021/10/15 00:47:15;;;;;;;8.10;4.23;;;;;;;9.10;93.91;101143.41;679541;28;1099;-58
2021/10/15 00:47:35;;;;;;;8.60;4.47;;;;;;;9.11;94.76;101149.47;680213;28;1600;-57
2021/10/15 00:47:56;;;;;;;9.05;4.65;;;;;;;9.14;94.13;101141.72;682171;28;1110;-57
2021/10/15 00:48:17;;;;;;;9.00;4.40;;;;;;;9.15;94.28;101144.31;684666;28;1250;-60
2021/10/15 00:48:38;;;;;;;9.25;4.30;;;;;;;9.12;92.87;101149.50;684166;28;1216;-57
2021/10/15 00:49:00;;;;;;;8.23;4.10;;;;;;;9.08;91.71;101139.88;683078;28;4605;-58
2021/10/15 00:49:20;;;;;;;7.35;3.83;;;;;;;9.09;92.36;101148.59;686891;28;1100;-58
2021/10/15 00:49:41;;;;;;;7.53;3.90;;;;;;;9.11;94.03;101142.56;685641;28;3387;-59
2021/10/15 00:50:02;;;;;;;7.97;4.05;;;;;;;9.09;93.68;101139.03;686832;28;1171;-58
2021/10/15 00:50:23;;;;;;;8.50;4.10;;;;;;;9.08;93.48;101136.41;685961;28;1297;-58
2021/10/15 00:50:45;;;;;;;8.57;4.17;;;;;;;9.10;93.74;101135.56;686415;28;1184;-58
2021/10/15 00:51:06;;;;;;;6.35;4.00;;;;;;;9.13;93.89;101138.22;685667;28;1374;-59
2021/10/15 00:51:26;;;;;;;7.10;4.13;;;;;;;9.15;94.04;101139.09;686657;28;1369;-58
2021/10/15 00:51:47;;;;;;;8.40;4.33;;;;;;;9.12;93.78;101135.59;686205;28;1192;-60
2021/10/15 00:52:08;;;;;;;8.48;4.15;;;;;;;9.11;93.38;101132.13;686119;28;4339;-57
2021/10/15 00:52:29;;;;;;;7.85;4.00;;;;;;;9.12;93.68;101131.22;686981;28;3591;-59
2021/10/15 00:52:50;;;;;;;9.02;4.10;;;;;;;9.08;93.03;101134.69;685289;28;3346;-60
2021/10/15 00:53:10;;;;;;;7.90;4.10;;;;;;;9.07;92.61;101138.16;686217;28;1293;-58
2021/10/15 00:53:32;;;;;;;6.75;4.00;;;;;;;9.07;92.45;101135.56;686393;28;1127;-59
2021/10/15 00:53:53;;;;;;;8.85;4.15;;;;;;;9.09;93.43;101128.59;685831;28;1132;-57
2021/10/15 00:54:15;;;;;;;8.17;4.30;;;;;;;9.09;93.58;101133.81;686009;28;1240;-59
2021/10/15 00:54:36;;;;;;;9.60;4.13;;;;;;;9.09;93.98;101131.22;685221;28;1009;-58
2021/10/15 00:54:57;;;;;;;8.73;4.32;;;;;;;9.07;94.13;101126.84;684759;28;4718;-59
2021/10/15 00:55:17;;;;;;;8.13;4.00;;;;;;;9.06;93.58;101128.59;686585;28;1092;-60
2021/10/15 00:55:38;;;;;;;8.73;4.00;;;;;;;9.03;92.93;101131.19;686604;28;1806;-55
2021/10/15 00:56:00;;;;;;;8.70;4.03;;;;;;;9.03;93.19;101128.56;683675;28;3507;-58
2021/10/15 00:56:23;;;;;;;8.20;4.30;;;;;;;9.07;93.81;101127.72;684385;28;1080;-58
2021/10/15 00:56:45;;;;;;;8.30;4.10;;;;;;;9.09;93.90;101123.38;680885;28;1015;-58
2021/10/15 00:57:11;;;;;;;10.07;4.32;;;;;;;9.05;93.77;101125.97;676104;29;1127;-57
2021/10/15 00:57:33;;;;;;;9.82;4.50;;;;;;;9.02;93.37;101119.00;673237;29;1198;-59
2021/10/15 00:57:53;;;;;;;7.82;4.30;;;;;;;8.99;93.51;101117.22;674814;29;4675;-58
2021/10/15 00:58:14;;;;;;;7.30;4.28;;;;;;;8.98;93.84;101118.06;676345;29;1245;-57
2021/10/15 00:58:34;;;;;;;8.80;3.90;;;;;;;8.97;93.47;101118.97;678102;29;1253;-58
2021/10/15 00:58:55;;;;;;;8.35;3.83;;;;;;;8.99;94.09;101116.34;679781;28;1944;-59
2021/10/15 00:59:16;;;;;;;8.13;4.10;;;;;;;8.98;94.58;101119.81;684378;28;3914;-58
2021/10/15 00:59:36;;;;;;;9.20;4.60;;;;;;;8.95;94.14;101125.00;685905;28;1070;-57
2021/10/15 00:59:56;;;;;;;9.73;4.40;;;;;;;8.89;93.01;101118.00;683972;28;1005;-60
2021/10/15 01:00:17;;;;;;;9.03;4.10;;;;;;;8.85;92.54;101122.31;684696;28;1144;-57
2021/10/15 01:00:37;;;;;;;7.80;4.10;;;;;;;8.85;93.50;101121.44;684044;28;1922;-58
2021/10/15 01:00:58;;;;;;;10.30;4.53;;;;;;;8.89;94.62;101118.00;682679;28;4540;-56
2021/10/15 01:01:19;;;;;;;8.90;4.23;;;;;;;8.86;94.74;101115.34;684712;28;1414;-64
2021/10/15 01:01:42;;;;;;;8.32;4.28;;;;;;;8.87;94.59;101119.72;681319;28;1186;-59
2021/10/15 01:02:02;;;;;;;9.23;4.38;;;;;;;8.89;95.87;101117.13;683041;28;1846;-58
2021/10/15 01:02:22;;;;;;;8.40;4.10;;;;;;;8.83;95.59;101121.44;683831;28;4349;-58
2021/10/15 01:02:43;;;;;;;8.70;3.90;;;;;;;8.82;95.37;101113.56;682789;28;1260;-59
2021/10/15 01:03:04;;;;;;;8.17;3.97;;;;;;;8.83;94.88;101117.94;682963;28;1288;-58
2021/10/15 01:03:24;;;;;;;8.50;4.03;;;;;;;8.82;94.00;101113.56;684471;28;1276;-58
2021/10/15 01:03:45;;;;;;;8.60;4.00;;;;;;;8.82;94.37;101117.06;685898;28;1133;-58
2021/10/15 01:04:06;;;;;;;7.57;3.67;;;;;;;8.83;94.15;101111.00;686221;28;4354;-60
2021/10/15 01:04:26;;;;;;;8.20;3.90;;;;;;;8.82;94.26;101114.47;686149;28;1139;-60
2021/10/15 01:04:47;;;;;;;8.07;4.03;;;;;;;8.86;94.71;101118.84;685784;28;1019;-55
2021/10/15 01:05:08;;;;;;;7.18;3.95;;;;;;;8.88;94.57;101123.22;682873;28;4864;-57
2021/10/15 01:05:28;;;;;;;9.27;4.30;;;;;;;8.88;94.67;101112.78;682949;28;3518;-57
2021/10/15 01:05:49;;;;;;;9.15;4.30;;;;;;;8.88;94.21;101112.78;683003;28;1315;-58
2021/10/15 01:06:09;;;;;;;8.67;4.40;;;;;;;8.89;94.65;101115.41;683381;28;1649;-59
2021/10/15 01:06:32;;;;;;;8.45;4.25;;;;;;;8.91;95.01;101110.19;683391;28;1208;-58
2021/10/15 01:06:53;;;;;;;9.82;4.50;;;;;;;8.93;95.04;101111.97;680745;28;4394;-59
2021/10/15 01:07:13;;;;;;;9.43;4.60;;;;;;;8.89;94.24;101112.78;681404;28;1163;-59
2021/10/15 01:07:37;;;;;;;9.25;4.30;;;;;;;8.85;93.25;101111.03;681779;28;1144;-59
2021/10/15 01:07:58;;;;;;;8.90;4.25;;;;;;;8.86;94.06;101103.22;681907;28;3039;-58
2021/10/15 01:08:19;;;;;;;9.38;4.32;;;;;;;8.88;94.03;101103.22;684002;28;3107;-59
2021/10/15 01:08:45;;;;;;;9.90;4.55;;;;;;;8.84;93.13;101102.31;682363;28;1253;-58
2021/10/15 01:09:07;;;;;;;8.77;4.32;;;;;;;8.81;93.53;101107.50;686736;28;1466;-58
2021/10/15 01:09:27;;;;;;;7.88;4.10;;;;;;;8.86;93.86;101108.41;685692;28;1120;-58
2021/10/15 01:09:48;;;;;;;8.27;4.20;;;;;;;8.87;94.04;101111.88;686486;28;1627;-58
2021/10/15 01:10:08;;;;;;;8.75;4.32;;;;;;;8.82;93.94;101104.03;686091;28;4431;-58
2021/10/15 01:10:29;;;;;;;9.80;4.33;;;;;;;8.81;94.59;101107.50;686891;28;1081;-59
2021/10/15 01:10:49;;;;;;;9.23;4.17;;;;;;;8.85;94.53;101114.47;686866;28;1338;-58
2021/10/15 01:11:12;;;;;;;10.10;4.53;;;;;;;8.90;94.61;101108.44;686164;28;3644;-56
2021/10/15 01:11:32;;;;;;;8.50;4.00;;;;;;;8.91;94.34;101102.38;685725;28;4018;-58
2021/10/15 01:11:54;;;;;;;8.93;4.18;;;;;;;8.84;94.06;101099.69;686774;28;1448;-56
2021/10/15 01:12:14;;;;;;;8.50;4.20;;;;;;;8.82;94.11;101108.34;686668;28;1191;-58
2021/10/15 01:12:39;;;;;;;8.90;4.50;;;;;;;8.79;93.62;101114.44;685874;28;1147;-60
2021/10/15 01:12:59;;;;;;;8.32;3.83;;;;;;;8.77;93.91;101108.31;685920;28;6265;-60
2021/10/15 01:13:22;;;;;;;9.15;4.28;;;;;;;8.72;92.90;101112.59;686554;28;1438;-59
2021/10/15 01:13:44;;;;;;;8.88;4.25;;;;;;;8.72;93.84;101106.53;685757;28;1268;-57
2021/10/15 01:14:06;;;;;;;8.98;4.10;;;;;;;8.77;94.34;101112.69;687258;28;1379;-58
2021/10/15 01:14:29;;;;;;;8.80;4.20;;;;;;;8.80;94.35;101112.69;683484;28;4025;-58
2021/10/15 01:14:49;;;;;;;8.57;4.35;;;;;;;8.77;94.48;101110.94;683674;28;1306;-57
2021/10/15 01:15:09;;;;;;;8.67;4.30;;;;;;;8.76;93.17;101108.31;684079;28;1147;-57
2021/10/15 01:15:30;;;;;;;9.32;4.30;;;;;;;8.72;92.95;101107.41;684066;28;1224;-57
2021/10/15 01:15:50;;;;;;;7.90;4.00;;;;;;;8.72;93.96;101110.00;682034;28;4427;-58
2021/10/15 01:16:13;;;;;;;8.95;4.00;;;;;;;8.77;94.29;101110.06;684498;28;1184;-59
2021/10/15 01:16:33;;;;;;;8.18;4.30;;;;;;;8.72;93.50;101107.41;686096;28;1219;-56
2021/10/15 01:16:54;;;;;;;9.10;4.60;;;;;;;8.68;92.48;101108.22;686005;28;1249;-58
2021/10/15 01:17:16;;;;;;;9.82;4.50;;;;;;;8.66;92.80;101108.22;686527;28;2159;-58
2021/10/15 01:17:37;;;;;;;10.00;4.43;;;;;;;8.65;92.87;101106.50;684395;28;2277;-58
2021/10/15 01:17:58;;;;;;;8.27;4.35;;;;;;;8.64;92.76;101107.34;685051;28;1114;-59
2021/10/15 01:18:18;;;;;;;7.13;3.70;;;;;;;8.62;93.55;101108.19;684002;28;1285;-57
2021/10/15 01:18:40;;;;;;;8.25;4.00;;;;;;;8.67;94.16;101106.50;683956;28;1265;-58
2021/10/15 01:19:03;;;;;;;8.77;4.50;;;;;;;8.71;94.52;101105.66;680386;28;4428;-59
2021/10/15 01:19:23;;;;;;;8.50;4.30;;;;;;;8.73;93.52;101109.16;682234;28;1240;-59
2021/10/15 01:19:43;;;;;;;8.85;4.15;;;;;;;8.70;93.60;101103.91;681882;28;1307;-58
2021/10/15 01:20:05;;;;;;;10.90;3.97;;;;;;;8.66;93.79;101107.34;682749;28;1339;-57
2021/10/15 01:20:26;;;;;;;11.38;4.40;;;;;;;8.69;94.47;101109.97;683758;28;3030;-59
2021/10/15 01:20:48;;;;;;;8.43;4.17;;;;;;;8.62;94.06;101111.66;684096;28;3416;-55
2021/10/15 01:21:10;;;;;;;8.95;4.20;;;;;;;8.63;94.16;101102.13;686418;28;1094;-58
2021/10/15 01:21:31;;;;;;;8.55;4.05;;;;;;;8.64;94.56;101106.44;681292;28;1513;-57
2021/10/15 01:21:51;;;;;;;8.88;3.95;;;;;;;8.65;94.24;101103.88;680214;28;4347;-58
2021/10/15 01:22:11;;;;;;;8.03;3.77;;;;;;;8.65;94.10;101102.97;682160;28;1165;-59
2021/10/15 01:22:32;;;;;;;7.20;3.83;;;;;;;8.61;94.89;101101.22;679300;28;1505;-58
2021/10/15 01:22:52;;;;;;;9.63;4.13;;;;;;;8.56;94.70;101102.91;678282;29;1165;-57
2021/10/15 01:23:14;;;;;;;8.02;3.95;;;;;;;8.61;95.35;101103.81;679250;28;1063;-59
2021/10/15 01:23:35;;;;;;;8.67;4.30;;;;;;;8.59;95.03;101102.94;684413;28;1926;-59
2021/10/15 01:23:56;;;;;;;9.90;4.00;;;;;;;8.64;95.05;101098.63;682859;28;3841;-57
2021/10/15 01:24:18;;;;;;;11.00;4.55;;;;;;;8.60;95.16;101102.06;683934;28;1271;-59
2021/10/15 01:24:38;;;;;;;11.75;5.47;;;;;;;8.59;94.09;101092.50;686019;28;1212;-57
2021/10/15 01:24:59;;;;;;;11.20;5.25;;;;;;;8.55;93.11;101098.56;685124;28;4636;-57
2021/10/15 01:25:19;;;;;;;8.70;4.47;;;;;;;8.51;93.14;101095.91;683580;28;1292;-59
2021/10/15 01:25:39;;;;;;;7.75;4.22;;;;;;;8.49;93.06;101092.41;681560;28;1143;-59
2021/10/15 01:26:00;;;;;;;8.03;3.87;;;;;;;8.49;93.65;101088.94;681653;28;1081;-58
2021/10/15 01:26:21;;;;;;;8.18;3.90;;;;;;;8.46;93.96;101091.47;682056;28;1176;-59
2021/10/15 01:26:41;;;;;;;8.32;3.72;;;;;;;8.46;93.54;101092.38;680772;28;3301;-58
2021/10/15 01:27:09;;;;;;;7.83;4.03;;;;;;;8.49;95.06;101095.00;682001;28;2004;-59
2021/10/15 01:27:29;;;;;;;11.50;4.40;;;;;;;8.41;94.41;101090.56;685724;28;1371;-58
2021/10/15 01:27:50;;;;;;;10.17;3.90;;;;;;;8.38;93.83;101096.59;685046;28;4360;-57
2021/10/15 01:28:10;;;;;;;8.32;3.88;;;;;;;8.41;95.54;101093.16;683828;28;1486;-59
2021/10/15 01:28:32;;;;;;;7.00;4.10;;;;;;;8.40;95.06;101092.25;684172;28;1298;-59
2021/10/15 01:28:54;;;;;;;8.80;4.25;;;;;;;8.43;95.76;101094.94;683922;28;1052;-59
2021/10/15 01:29:15;;;;;;;9.43;4.72;;;;;;;8.49;95.83;101096.75;682000;28;1209;-58
2021/10/15 01:29:37;;;;;;;9.03;4.33;;;;;;;8.43;94.48;101088.81;681356;28;1422;-58
2021/10/15 01:29:57;;;;;;;9.55;4.18;;;;;;;8.42;94.38;101093.16;681888;28;3659;-57
2021/10/15 01:30:18;;;;;;;8.38;4.05;;;;;;;8.40;93.15;101089.66;683378;28;1123;-59
2021/10/15 01:30:38;;;;;;;7.20;4.00;;;;;;;8.35;92.93;101086.16;683775;28;1439;-59
2021/10/15 01:31:00;;;;;;;8.30;3.90;;;;;;;8.35;93.93;101096.56;681602;28;4498;-57
2021/10/15 01:31:25;;;;;;;8.70;3.70;;;;;;;8.40;94.62;101092.25;683587;28;1199;-59
2021/10/15 01:31:46;;;;;;;10.38;4.18;;;;;;;8.42;95.74;101098.38;683867;28;1247;-58
2021/10/15 01:32:09;;;;;;;9.07;4.17;;;;;;;8.39;95.05;101087.03;683319;28;1302;-56
2021/10/15 01:32:29;;;;;;;7.25;3.65;;;;;;;8.38;94.86;101095.69;683319;28;1493;-58
2021/10/15 01:32:50;;;;;;;8.53;4.00;;;;;;;8.39;95.12;101097.47;684801;28;2365;-58
2021/10/15 01:33:12;;;;;;;8.18;3.95;;;;;;;8.40;94.82;101089.66;685922;28;3467;-58
2021/10/15 01:33:33;;;;;;;8.45;4.45;;;;;;;8.43;93.65;101088.81;686611;28;1158;-56
2021/10/15 01:33:56;;;;;;;9.18;4.30;;;;;;;8.43;93.86;101086.22;686187;28;4558;-58
2021/10/15 01:34:17;;;;;;;9.35;4.40;;;;;;;8.44;94.35;101094.03;684880;28;1136;-59
2021/10/15 01:34:37;;;;;;;8.87;4.33;;;;;;;8.42;94.59;101090.56;684236;28;1326;-56
2021/10/15 01:34:58;;;;;;;7.97;3.95;;;;;;;8.40;94.52;101083.59;685117;28;986;-56
2021/10/15 01:35:18;;;;;;;6.80;3.80;;;;;;;8.41;95.06;101091.41;685427;28;1200;-58
2021/10/15 01:35:39;;;;;;;8.45;4.07;;;;;;;8.46;95.22;101087.16;684972;28;1244;-58
2021/10/15 01:36:00;;;;;;;7.05;4.05;;;;;;;8.47;95.19;101086.31;685437;28;3201;-58
2021/10/15 01:36:21;;;;;;;7.33;4.20;;;;;;;8.49;95.25;101083.72;683646;28;3681;-58
2021/10/15 01:36:41;;;;;;;7.13;4.00;;;;;;;8.43;94.26;101079.28;684082;28;1397;-59
2021/10/15 01:37:02;;;;;;;8.65;4.07;;;;;;;8.37;94.36;101079.22;683207;28;4788;-59
2021/10/15 01:37:22;;;;;;;9.02;4.03;;;;;;;8.43;95.26;101094.03;683568;28;1227;-57
2021/10/15 01:37:43;;;;;;;8.40;4.13;;;;;;;8.42;95.40;101082.75;684248;28;1307;-58
2021/10/15 01:38:03;;;;;;;9.00;4.20;;;;;;;8.41;94.87;101085.34;683437;28;1274;-56
2021/10/15 01:38:24;;;;;;;9.73;4.30;;;;;;;8.42;95.41;101082.75;687231;28;1243;-59
2021/10/15 01:38:44;;;;;;;8.93;4.40;;;;;;;8.45;95.57;101077.59;683127;28;1352;-59
2021/10/15 01:39:05;;;;;;;9.10;4.37;;;;;;;8.45;95.94;101084.56;682990;28;3611;-58
2021/10/15 01:39:25;;;;;;;6.93;4.20;;;;;;;8.45;95.64;101081.94;680041;28;4125;-58
2021/10/15 01:39:45;;;;;;;8.07;4.40;;;;;;;8.47;95.40;101075.00;681417;28;1114;-58
2021/10/15 01:40:06;;;;;;;8.57;4.20;;;;;;;8.52;95.39;101084.63;680678;28;4444;-59
2021/10/15 01:40:27;;;;;;;9.82;4.30;;;;;;;8.48;95.19;101081.97;681065;28;1204;-59
2021/10/15 01:40:47;;;;;;;11.53;4.40;;;;;;;8.50;95.37;101080.25;683821;28;1930;-58